createdAt,value
2023-02-06T00:01:06.284Z,77.56
2023-02-06T00:03:33.061Z,78.28
2023-02-06T00:06:00.459Z,78.60
2023-02-06T00:08:27.607Z,78.53
2023-02-06T00:10:54.643Z,79.39
2023-02-06T00:13:21.830Z,79.04
2023-02-06T00:15:48.646Z,79.38
2023-02-06T00:18:15.680Z,78.86
2023-02-06T00:20:42.544Z,79.40
2023-02-06T00:23:09.456Z,78.29
2023-02-06T00:25:37.181Z,77.90
2023-02-06T00:28:04.474Z,78.02
2023-02-06T00:30:31.846Z,78.36
2023-02-06T00:32:59.092Z,78.91
2023-02-06T00:35:25.950Z,78.47
2023-02-06T00:37:52.649Z,78.73
2023-02-06T00:40:19.780Z,79.43
2023-02-06T00:42:46.831Z,80.04
2023-02-06T00:45:13.961Z,80.33
2023-02-06T00:47:41.002Z,80.07
2023-02-06T00:50:08.068Z,80.53
2023-02-06T00:52:34.797Z,80.79
2023-02-06T00:55:01.883Z,81.47
2023-02-06T00:57:28.674Z,80.35
2023-02-06T00:59:55.456Z,79.42
2023-02-06T01:02:22.253Z,79.29
2023-02-06T01:04:51.270Z,79.61
2023-02-06T01:07:18.001Z,80.03
2023-02-06T01:09:45.114Z,80.51
2023-02-06T01:12:11.884Z,80.13
2023-02-06T01:14:39.326Z,80.49
2023-02-06T01:17:06.369Z,81.13
2023-02-06T01:19:33.320Z,82.52
2023-02-06T01:22:02.539Z,81.04
2023-02-06T01:24:29.452Z,80.76
2023-02-06T01:26:58.505Z,81.67
2023-02-06T01:29:25.239Z,81.58
2023-02-06T01:31:52.038Z,81.64
2023-02-06T01:34:18.836Z,80.59
2023-02-06T01:36:45.558Z,81.01
2023-02-06T01:39:12.258Z,82.49
2023-02-06T01:41:39.381Z,82.58
2023-02-06T01:44:07.471Z,81.45
2023-02-06T01:46:34.438Z,81.32
2023-02-06T01:49:01.870Z,82.19
2023-02-06T01:51:29.425Z,82.88
2023-02-06T01:53:59.559Z,80.92
2023-02-06T01:56:28.236Z,81.01
2023-02-06T01:58:58.399Z,82.42
2023-02-06T02:01:27.398Z,83.18
2023-02-06T02:03:56.943Z,84.05
2023-02-06T02:06:25.257Z,83.53
2023-02-06T02:08:53.592Z,83.36
2023-02-06T02:11:23.385Z,82.70
2023-02-06T02:13:51.468Z,82.51
2023-02-06T02:16:21.479Z,82.51
2023-02-06T02:18:51.421Z,82.24
2023-02-06T02:21:21.720Z,82.34
2023-02-06T02:23:51.545Z,82.42
2023-02-06T02:26:22.283Z,82.67
2023-02-06T02:28:51.980Z,83.25
2023-02-06T02:31:21.836Z,82.96
2023-02-06T02:33:51.700Z,82.35
2023-02-06T02:36:21.525Z,82.15
2023-02-06T02:38:48.566Z,82.12
2023-02-06T02:41:15.731Z,82.26
2023-02-06T02:43:44.103Z,81.93
2023-02-06T02:46:11.278Z,81.79
2023-02-06T02:48:42.869Z,82.44
2023-02-06T02:51:10.462Z,82.36
2023-02-06T02:53:37.847Z,83.01
2023-02-06T02:56:14.160Z,83.22
2023-02-06T02:58:41.083Z,82.73
2023-02-06T03:01:12.054Z,82.98
2023-02-06T03:03:41.010Z,83.21
2023-02-06T03:06:10.913Z,82.70
2023-02-06T03:08:46.395Z,82.64
2023-02-06T03:11:15.434Z,82.76
2023-02-06T03:13:45.517Z,82.44
2023-02-06T03:16:14.083Z,82.53
2023-02-06T03:18:44.259Z,82.58
2023-02-06T03:21:13.995Z,82.64
2023-02-06T03:23:42.746Z,82.76
2023-02-06T03:26:10.911Z,82.30
2023-02-06T03:28:40.326Z,82.23
2023-02-06T03:31:09.649Z,82.50
2023-02-06T03:33:40.370Z,82.94
2023-02-06T03:36:10.190Z,82.10
2023-02-06T03:38:37.313Z,81.41
2023-02-06T03:41:05.391Z,81.27
2023-02-06T03:43:32.426Z,81.68
2023-02-06T03:46:02.203Z,81.58
2023-02-06T03:48:29.288Z,81.58
2023-02-06T03:50:58.840Z,81.69
2023-02-06T03:53:26.402Z,81.32
2023-02-06T03:55:57.018Z,82.07
2023-02-06T03:58:24.789Z,81.64
2023-02-06T04:00:54.802Z,81.79
2023-02-06T04:03:22.992Z,82.08
2023-02-06T04:05:49.794Z,81.56
2023-02-06T04:08:16.566Z,81.35
2023-02-06T04:10:43.400Z,82.03
2023-02-06T04:13:10.111Z,81.90
2023-02-06T04:15:37.287Z,81.52
2023-02-06T04:18:05.881Z,81.86
2023-02-06T04:20:33.176Z,82.46
2023-02-06T04:23:00.450Z,82.52
2023-02-06T04:25:27.480Z,83.00
2023-02-06T04:27:54.353Z,82.94
2023-02-06T04:30:21.290Z,82.27
2023-02-06T04:32:48.075Z,82.66
2023-02-06T04:35:14.881Z,83.08
2023-02-06T04:37:41.614Z,83.38
2023-02-06T04:40:09.105Z,83.76
2023-02-06T04:42:36.261Z,83.62
2023-02-06T04:45:03.479Z,83.01
2023-02-06T04:47:30.424Z,83.24
2023-02-06T04:49:57.100Z,83.58
2023-02-06T04:52:24.124Z,83.90
2023-02-06T04:54:51.182Z,84.03
2023-02-06T04:57:18.327Z,83.99
2023-02-06T04:59:45.640Z,83.59
2023-02-06T05:02:12.514Z,83.88
2023-02-06T05:04:39.488Z,84.53
2023-02-06T05:07:06.606Z,84.20
2023-02-06T05:09:33.619Z,84.36
2023-02-06T05:12:00.451Z,84.16
2023-02-06T05:14:27.541Z,84.71
2023-02-06T05:16:54.617Z,84.47
2023-02-06T05:19:21.361Z,84.31
2023-02-06T05:21:48.076Z,85.01
2023-02-06T05:24:15.131Z,85.07
2023-02-06T05:26:42.175Z,85.58
2023-02-06T05:29:09.443Z,85.18
2023-02-06T05:31:36.658Z,84.93
2023-02-06T05:34:03.530Z,84.55
2023-02-06T05:36:30.461Z,84.79
2023-02-06T05:38:57.624Z,84.36
2023-02-06T05:41:24.340Z,84.21
2023-02-06T05:43:51.425Z,84.42
2023-02-06T05:46:19.629Z,85.10
2023-02-06T05:48:46.392Z,85.64
2023-02-06T05:51:13.072Z,85.09
2023-02-06T05:53:39.796Z,85.85
2023-02-06T05:56:06.734Z,86.03
2023-02-06T05:58:33.628Z,86.37
2023-02-06T06:01:00.425Z,86.39
2023-02-06T06:03:27.285Z,86.29
2023-02-06T06:05:54.419Z,85.83
2023-02-06T06:08:21.677Z,85.15
2023-02-06T06:10:50.329Z,84.93
2023-02-06T06:13:17.026Z,85.08
2023-02-06T06:15:43.868Z,85.34
2023-02-06T06:18:11.287Z,85.27
2023-02-06T06:20:38.021Z,85.19
2023-02-06T06:23:04.803Z,84.94
2023-02-06T06:25:31.520Z,85.00
2023-02-06T06:27:58.330Z,85.02
2023-02-06T06:30:25.043Z,84.81
2023-02-06T06:32:51.971Z,84.81
2023-02-06T06:35:18.859Z,84.55
2023-02-06T06:37:45.560Z,85.30
2023-02-06T06:40:12.510Z,85.82
2023-02-06T06:42:39.336Z,85.80
2023-02-06T06:45:06.789Z,85.65
2023-02-06T06:47:36.342Z,85.24
2023-02-06T06:50:03.060Z,85.25
2023-02-06T06:52:30.302Z,85.43
2023-02-06T06:54:57.114Z,85.62
2023-02-06T06:57:24.004Z,86.35
2023-02-06T06:59:50.941Z,86.06
2023-02-06T07:02:17.981Z,85.95
2023-02-06T07:04:44.726Z,86.04
2023-02-06T07:07:11.489Z,85.69
2023-02-06T07:09:38.403Z,85.34
2023-02-06T07:12:06.035Z,85.55
2023-02-06T07:14:32.789Z,85.79
2023-02-06T07:17:01.062Z,85.94
2023-02-06T07:19:28.075Z,85.70
2023-02-06T07:21:54.899Z,86.41
2023-02-06T07:24:21.635Z,86.18
2023-02-06T07:26:48.847Z,86.70
2023-02-06T07:29:15.568Z,86.45
2023-02-06T07:31:42.705Z,86.30
2023-02-06T07:34:09.687Z,86.75
2023-02-06T07:36:38.171Z,86.50
2023-02-06T07:39:05.251Z,86.84
2023-02-06T07:41:32.001Z,86.67
2023-02-06T07:43:59.111Z,86.08
2023-02-06T07:46:26.062Z,86.69
2023-02-06T07:48:53.045Z,86.82
2023-02-06T07:51:23.166Z,86.80
2023-02-06T07:53:50.202Z,86.53
2023-02-06T07:56:18.106Z,86.59
2023-02-06T07:58:45.331Z,86.89
2023-02-06T08:01:12.203Z,86.05
2023-02-06T08:03:39.005Z,86.08
2023-02-06T08:06:11.106Z,85.33
2023-02-06T08:08:38.305Z,85.40
2023-02-06T08:11:06.806Z,85.86
2023-02-06T08:13:34.104Z,86.02
2023-02-06T08:16:07.053Z,85.60
2023-02-06T08:18:34.215Z,85.21
2023-02-06T08:21:02.691Z,85.54
2023-02-06T08:23:29.580Z,85.47
2023-02-06T08:25:59.555Z,85.94
2023-02-06T08:28:26.561Z,86.05
2023-02-06T08:30:53.437Z,85.87
2023-02-06T08:33:20.485Z,86.08
2023-02-06T08:35:47.445Z,86.33
2023-02-06T08:38:14.337Z,86.01
2023-02-06T08:40:41.101Z,86.07
2023-02-06T08:43:08.089Z,85.83
2023-02-06T08:45:35.381Z,85.61
2023-02-06T08:48:02.325Z,85.76
2023-02-06T08:50:29.221Z,85.32
2023-02-06T08:52:56.070Z,85.15
2023-02-06T08:55:25.168Z,85.12
2023-02-06T08:57:53.041Z,84.42
2023-02-06T09:00:20.856Z,84.56
2023-02-06T09:02:48.233Z,85.84
2023-02-06T09:05:15.621Z,89.68
2023-02-06T09:07:42.642Z,88.45
2023-02-06T09:10:18.963Z,86.85
2023-02-06T09:12:53.930Z,85.13
2023-02-06T09:15:20.787Z,84.58
2023-02-06T09:17:48.176Z,84.34
2023-02-06T09:20:15.376Z,83.17
2023-02-06T09:22:44.715Z,82.46
2023-02-06T09:25:12.205Z,82.56
2023-02-06T09:27:39.471Z,82.98
2023-02-06T09:30:06.467Z,83.27
2023-02-06T09:32:33.418Z,82.22
2023-02-06T09:35:01.438Z,81.83
2023-02-06T09:37:28.299Z,81.83
2023-02-06T09:39:55.149Z,81.81
2023-02-06T09:42:30.500Z,82.10
2023-02-06T09:45:03.340Z,81.78
2023-02-06T09:47:32.342Z,81.90
2023-02-06T09:50:05.088Z,81.73
2023-02-06T09:52:34.952Z,82.22
2023-02-06T09:55:04.742Z,81.24
2023-02-06T09:57:34.931Z,80.55
2023-02-06T10:00:04.839Z,81.14
2023-02-06T10:02:34.770Z,80.39
2023-02-06T10:05:08.073Z,80.54
2023-02-06T10:07:47.284Z,79.83
2023-02-06T10:10:17.216Z,78.51
2023-02-06T10:12:47.082Z,79.28
2023-02-06T10:15:17.119Z,79.44
2023-02-06T10:17:49.985Z,80.89
2023-02-06T10:20:20.064Z,79.18
2023-02-06T10:22:51.378Z,79.18
2023-02-06T10:25:22.999Z,78.78
2023-02-06T10:27:54.102Z,78.38
2023-02-06T10:30:29.406Z,78.14
2023-02-06T10:33:03.362Z,77.67
2023-02-06T10:35:35.510Z,76.61
2023-02-06T10:38:06.304Z,76.23
2023-02-06T10:40:33.580Z,76.62
2023-02-06T10:43:03.753Z,76.49
2023-02-06T10:45:31.915Z,76.92
2023-02-06T10:48:02.046Z,76.53
2023-02-06T10:50:30.967Z,76.23
2023-02-06T10:53:04.472Z,75.89
2023-02-06T10:55:38.140Z,76.03
2023-02-06T10:58:13.565Z,75.58
2023-02-06T11:00:41.270Z,75.08
2023-02-06T11:03:13.383Z,75.44
2023-02-06T11:05:41.599Z,75.30
2023-02-06T11:08:11.536Z,75.15
2023-02-06T11:10:38.919Z,76.00
2023-02-06T11:13:09.350Z,76.11
2023-02-06T11:15:39.607Z,75.92
2023-02-06T11:18:11.331Z,75.39
2023-02-06T11:20:39.060Z,75.24
2023-02-06T11:23:09.417Z,74.01
2023-02-06T11:25:36.659Z,74.39
2023-02-06T11:28:06.196Z,74.08
2023-02-06T11:30:37.044Z,73.97
2023-02-06T11:33:07.199Z,73.67
2023-02-06T11:35:35.399Z,73.67
2023-02-06T11:38:05.661Z,74.08
2023-02-06T11:40:32.715Z,73.48
2023-02-06T11:43:03.126Z,73.63
2023-02-06T11:45:31.677Z,73.59
2023-02-06T11:47:59.372Z,73.35
2023-02-06T11:50:29.152Z,72.69
2023-02-06T11:52:59.159Z,71.71
2023-02-06T11:55:29.652Z,71.79
2023-02-06T11:57:59.661Z,71.53
2023-02-06T12:00:26.696Z,70.67
2023-02-06T12:02:55.307Z,70.11
2023-02-06T12:05:25.505Z,69.74
2023-02-06T12:07:55.495Z,70.30
2023-02-06T12:10:24.226Z,69.38
2023-02-06T12:12:53.963Z,69.22
2023-02-06T12:15:44.738Z,68.62
2023-02-06T12:18:14.684Z,68.04
2023-02-06T12:20:44.562Z,67.07
2023-02-06T12:23:14.396Z,66.51
2023-02-06T12:25:43.371Z,66.64
2023-02-06T12:28:13.232Z,65.77
2023-02-06T12:30:44.344Z,65.29
2023-02-06T12:33:11.575Z,64.46
2023-02-06T12:35:41.518Z,63.72
2023-02-06T12:38:11.532Z,63.11
2023-02-06T12:40:38.826Z,63.17
2023-02-06T12:43:08.675Z,62.03
2023-02-06T12:45:38.828Z,61.59
2023-02-06T12:48:11.187Z,59.71
2023-02-06T12:50:43.165Z,59.44
2023-02-06T12:53:15.539Z,58.80
2023-02-06T12:55:44.907Z,59.25
2023-02-06T12:58:15.214Z,59.92
2023-02-06T13:00:45.952Z,59.82
2023-02-06T13:03:16.175Z,59.88
2023-02-06T13:05:47.056Z,59.94
2023-02-06T13:08:16.872Z,59.67
2023-02-06T13:10:43.862Z,60.14
2023-02-06T13:13:13.839Z,61.05
2023-02-06T13:15:41.758Z,59.50
2023-02-06T13:18:12.246Z,59.16
2023-02-06T13:21:02.121Z,57.51
2023-02-06T13:23:29.074Z,58.06
2023-02-06T13:25:56.051Z,58.74
2023-02-06T13:28:23.455Z,56.66
2023-02-06T13:30:59.235Z,56.43
2023-02-06T13:33:37.562Z,55.18
2023-02-06T13:36:06.682Z,55.07
2023-02-06T13:38:33.982Z,54.87
2023-02-06T13:41:03.801Z,54.63
2023-02-06T13:43:31.856Z,54.22
2023-02-06T13:46:01.044Z,53.92
2023-02-06T13:48:36.724Z,54.46
2023-02-06T13:51:06.628Z,53.84
2023-02-06T13:53:36.722Z,52.34
2023-02-06T13:56:09.275Z,54.30
2023-02-06T13:58:37.177Z,52.59
2023-02-06T14:01:05.070Z,51.79
2023-02-06T14:03:33.860Z,51.86
2023-02-06T14:06:01.026Z,51.45
2023-02-06T14:08:30.989Z,51.38
2023-02-06T14:11:06.554Z,50.45
2023-02-06T14:13:40.139Z,51.48
2023-02-06T14:16:10.066Z,51.93
2023-02-06T14:18:38.589Z,51.65
2023-02-06T14:21:08.580Z,51.20
2023-02-06T14:23:38.546Z,51.07
2023-02-06T14:26:08.676Z,51.26
2023-02-06T14:28:38.635Z,51.03
2023-02-06T14:31:06.868Z,50.35
2023-02-06T14:33:37.604Z,50.57
2023-02-06T14:36:05.396Z,50.76
2023-02-06T14:38:32.533Z,49.45
2023-02-06T14:41:02.055Z,49.27
2023-02-06T14:43:31.882Z,50.81
2023-02-06T14:46:07.643Z,50.32
2023-02-06T14:48:35.480Z,48.64
2023-02-06T14:51:02.343Z,48.53
2023-02-06T14:53:32.246Z,48.98
2023-02-06T14:56:02.237Z,49.45
2023-02-06T14:58:29.957Z,49.22
2023-02-06T15:00:57.491Z,50.64
2023-02-06T15:03:28.631Z,49.95
2023-02-06T15:06:00.921Z,50.37
2023-02-06T15:08:27.820Z,49.87
2023-02-06T15:11:00.582Z,50.01
2023-02-06T15:13:32.358Z,49.89
2023-02-06T15:15:59.285Z,50.33
2023-02-06T15:18:26.259Z,50.13
2023-02-06T15:20:55.141Z,48.47
2023-02-06T15:23:25.220Z,48.52
2023-02-06T15:25:55.141Z,48.54
2023-02-06T15:28:27.707Z,49.93
2023-02-06T15:30:56.229Z,49.65
2023-02-06T15:33:24.924Z,49.59
2023-02-06T15:35:53.341Z,49.34
2023-02-06T15:38:21.555Z,50.13
2023-02-06T15:40:51.683Z,51.87
2023-02-06T15:43:20.307Z,51.55
2023-02-06T15:45:48.355Z,50.01
2023-02-06T15:48:18.770Z,50.05
2023-02-06T15:50:48.923Z,50.93
2023-02-06T15:53:17.269Z,50.25
2023-02-06T15:55:51.327Z,48.93
2023-02-06T15:58:18.367Z,49.76
2023-02-06T16:00:50.236Z,51.23
2023-02-06T16:03:19.011Z,52.10
2023-02-06T16:05:45.874Z,51.95
2023-02-06T16:08:23.779Z,52.07
2023-02-06T16:10:53.737Z,52.40
2023-02-06T16:13:23.545Z,52.57
2023-02-06T16:15:53.423Z,53.62
2023-02-06T16:18:23.486Z,53.08
2023-02-06T16:20:50.566Z,51.99
2023-02-06T16:23:18.779Z,52.16
2023-02-06T16:25:47.329Z,50.82
2023-02-06T16:28:17.300Z,51.32
2023-02-06T16:30:53.601Z,50.84
2023-02-06T16:33:23.542Z,50.85
2023-02-06T16:35:50.297Z,50.34
2023-02-06T16:38:17.137Z,50.32
2023-02-06T16:40:43.936Z,50.68
2023-02-06T16:43:12.389Z,50.26
2023-02-06T16:45:39.676Z,50.71
2023-02-06T16:48:11.560Z,50.88
2023-02-06T16:50:40.116Z,50.59
2023-02-06T16:53:11.353Z,51.16
2023-02-06T16:55:38.268Z,50.97
2023-02-06T16:58:05.672Z,51.96
2023-02-06T17:00:32.978Z,52.82
2023-02-06T17:02:59.960Z,52.00
2023-02-06T17:05:27.460Z,52.42
2023-02-06T17:07:55.300Z,53.15
2023-02-06T17:10:24.755Z,53.71
2023-02-06T17:12:54.303Z,53.85
2023-02-06T17:15:21.542Z,53.96
2023-02-06T17:17:48.497Z,54.36
2023-02-06T17:20:18.581Z,53.99
2023-02-06T17:22:45.747Z,53.63
2023-02-06T17:25:12.755Z,53.23
2023-02-06T17:27:39.931Z,53.22
2023-02-06T17:30:07.116Z,53.34
2023-02-06T17:32:34.016Z,53.11
2023-02-06T17:35:02.764Z,53.32
2023-02-06T17:37:29.577Z,54.06
2023-02-06T17:39:56.488Z,54.64
2023-02-06T17:42:24.467Z,54.66
2023-02-06T17:44:51.548Z,54.05
2023-02-06T17:47:18.371Z,54.65
2023-02-06T17:49:47.244Z,55.03
2023-02-06T17:52:14.774Z,54.91
2023-02-06T17:54:41.795Z,53.97
2023-02-06T17:57:08.841Z,54.13
2023-02-06T17:59:35.759Z,54.73
2023-02-06T18:02:02.789Z,55.28
2023-02-06T18:04:31.855Z,55.45
2023-02-06T18:06:59.165Z,55.85
2023-02-06T18:09:26.066Z,56.34
2023-02-06T18:11:53.121Z,56.48
2023-02-06T18:14:21.032Z,56.57
2023-02-06T18:16:48.289Z,56.23
2023-02-06T18:19:15.931Z,55.42
2023-02-06T18:21:42.923Z,55.22
2023-02-06T18:24:09.702Z,55.27
2023-02-06T18:26:37.001Z,55.15
2023-02-06T18:29:05.261Z,55.11
2023-02-06T18:31:34.702Z,55.02
2023-02-06T18:34:03.385Z,54.46
2023-02-06T18:36:30.581Z,53.81
2023-02-06T18:38:57.580Z,53.89
2023-02-06T18:41:27.641Z,53.81
2023-02-06T18:43:54.792Z,54.32
2023-02-06T18:46:21.591Z,54.31
2023-02-06T18:48:48.395Z,53.70
2023-02-06T18:51:15.476Z,53.74
2023-02-06T18:53:42.756Z,54.20
2023-02-06T18:56:09.666Z,54.92
2023-02-06T18:58:36.594Z,54.11
2023-02-06T19:01:10.367Z,53.94
2023-02-06T19:03:37.251Z,54.66
2023-02-06T19:06:10.225Z,55.16
2023-02-06T19:08:37.011Z,54.41
2023-02-06T19:11:03.926Z,54.97
2023-02-06T19:13:31.085Z,54.22
2023-02-06T19:16:01.043Z,55.84
2023-02-06T19:18:37.603Z,55.19
2023-02-06T19:21:07.175Z,54.72
2023-02-06T19:23:36.305Z,55.31
2023-02-06T19:26:05.251Z,54.77
2023-02-06T19:28:32.289Z,54.21
2023-02-06T19:31:02.463Z,55.22
2023-02-06T19:33:30.624Z,55.71
2023-02-06T19:35:57.422Z,55.76
2023-02-06T19:38:24.300Z,55.86
2023-02-06T19:40:53.260Z,55.32
2023-02-06T19:43:20.252Z,54.61
2023-02-06T19:45:47.163Z,53.38
2023-02-06T19:48:14.257Z,52.91
2023-02-06T19:50:42.181Z,53.40
2023-02-06T19:53:09.397Z,53.36
2023-02-06T19:55:36.646Z,52.75
2023-02-06T19:58:03.815Z,51.92
2023-02-06T20:00:30.619Z,52.81
2023-02-06T20:02:57.828Z,53.25
2023-02-06T20:05:27.240Z,53.22
2023-02-06T20:07:54.630Z,53.75
2023-02-06T20:10:22.023Z,54.04
2023-02-06T20:12:48.777Z,54.64
2023-02-06T20:15:15.972Z,54.83
2023-02-06T20:17:43.148Z,55.01
2023-02-06T20:20:10.559Z,55.12
2023-02-06T20:22:37.400Z,55.75
2023-02-06T20:25:04.530Z,55.76
2023-02-06T20:27:31.409Z,55.63
2023-02-06T20:29:58.214Z,56.00
2023-02-06T20:32:24.996Z,56.02
2023-02-06T20:34:51.854Z,55.72
2023-02-06T20:37:18.999Z,55.98
2023-02-06T20:39:45.886Z,55.68
2023-02-06T20:42:12.800Z,55.92
2023-02-06T20:44:39.795Z,57.56
2023-02-06T20:47:06.851Z,56.57
2023-02-06T20:49:33.646Z,57.46
2023-02-06T20:52:03.454Z,57.20
2023-02-06T20:54:31.058Z,57.50
2023-02-06T20:57:00.474Z,57.40
2023-02-06T20:59:28.067Z,57.92
2023-02-06T21:01:54.885Z,57.30
2023-02-06T21:04:21.789Z,57.15
2023-02-06T21:06:50.311Z,57.54
2023-02-06T21:09:17.734Z,57.50
2023-02-06T21:11:46.172Z,58.23
2023-02-06T21:14:13.520Z,58.56
2023-02-06T21:16:40.490Z,59.26
2023-02-06T21:19:08.708Z,58.97
2023-02-06T21:21:35.471Z,59.17
2023-02-06T21:24:02.323Z,59.30
2023-02-06T21:26:29.513Z,59.30
2023-02-06T21:28:58.542Z,60.14
2023-02-06T21:31:34.739Z,60.38
2023-02-06T21:34:07.338Z,60.52
2023-02-06T21:36:35.074Z,60.33
2023-02-06T21:39:01.827Z,61.63
2023-02-06T21:41:28.545Z,61.52
2023-02-06T21:43:55.395Z,61.57
2023-02-06T21:46:22.185Z,64.07
2023-02-06T21:48:52.810Z,63.44
2023-02-06T21:51:20.300Z,64.01
2023-02-06T21:53:47.454Z,64.79
2023-02-06T21:56:16.861Z,64.67
2023-02-06T21:58:43.790Z,66.40
2023-02-06T22:01:13.756Z,65.75
2023-02-06T22:03:40.494Z,67.60
2023-02-06T22:06:10.581Z,68.11
2023-02-06T22:08:39.751Z,68.84
2023-02-06T22:11:09.796Z,69.20
2023-02-06T22:13:36.902Z,69.69
2023-02-06T22:16:03.702Z,69.99
2023-02-06T22:18:30.532Z,69.89
2023-02-06T22:21:01.057Z,69.60
2023-02-06T22:23:28.110Z,70.09
2023-02-06T22:25:54.982Z,70.57
2023-02-06T22:28:21.812Z,70.31
2023-02-06T22:30:49.295Z,70.98
2023-02-06T22:33:16.186Z,69.93
2023-02-06T22:35:43.239Z,70.08
2023-02-06T22:38:10.014Z,70.95
2023-02-06T22:40:36.766Z,70.33
2023-02-06T22:43:03.731Z,72.21
2023-02-06T22:45:30.880Z,72.31
2023-02-06T22:47:57.731Z,71.25
2023-02-06T22:50:24.878Z,70.48
2023-02-06T22:52:54.955Z,70.17
2023-02-06T22:55:21.840Z,70.68
2023-02-06T22:57:50.351Z,70.38
2023-02-06T23:00:18.624Z,70.93
2023-02-06T23:02:46.044Z,71.35
2023-02-06T23:05:12.982Z,70.96
2023-02-06T23:07:40.086Z,71.35
2023-02-06T23:10:07.626Z,71.26
2023-02-06T23:12:35.400Z,71.84
2023-02-06T23:15:02.589Z,71.94
2023-02-06T23:17:29.569Z,71.95
2023-02-06T23:19:56.557Z,73.05
2023-02-06T23:22:23.455Z,72.84
2023-02-06T23:24:50.957Z,72.71
2023-02-06T23:27:20.005Z,72.99
2023-02-06T23:29:47.248Z,74.99
2023-02-06T23:32:14.395Z,74.52
2023-02-06T23:34:41.407Z,73.90
2023-02-06T23:37:08.442Z,74.17
2023-02-06T23:39:35.475Z,73.93
2023-02-06T23:42:02.660Z,76.40
2023-02-06T23:44:29.585Z,75.60
2023-02-06T23:46:56.565Z,75.41
2023-02-06T23:49:23.476Z,75.70
2023-02-06T23:51:50.427Z,77.32
2023-02-06T23:54:17.367Z,79.14
2023-02-06T23:56:44.287Z,81.44
2023-02-06T23:59:12.660Z,79.57
